Terminal Aerodrome Forecast
Issued by NWS

Home | Current Version | Previous Version | Text Only | Print | Product List | Glossary On
Versions: 1 2 3 4 5 6 7 8 9 10 11 12 13 14 15 16 17 18 19 20 21 22 23 24 25 26 27 28 29 30 31 32 33 34 35 36 37 38 39 40 41 42
000
FTUS41 KGYX 230520
TAFMHT
TAF
KMHT 230520Z 2306/2406 01006KT 2SM -FZDZ BR OVC005
     FM231400 17007KT 3SM -RA BR BKN003 OVC007
     FM232200 24005KT P6SM FEW050=

USA.gov is the U.S. government's official web portal to all federal, state and local government web resources and services.